Pagina principale
METAR-TAF:

METAR-TAF

Aeroporti :

Sion, Svizzera

latitudine: 46-13N, longitudine: 007-20E, altezza: 482 m

Osservazione

Il bollettino è stato emesso 37 minuti fa, alle 16:20 UTC
Vento 13 kt da ovest/sud-ovest
Temperature 25°C
Umidità 34%
Pressione 1013 hPa
Visibilità 10 km o più
Nubi sparse ad un'altezza di 10000 ft

METAR: LSGS 311620Z 24013KT 9999 SCT100 25/08 Q1013

Ora: 18:57 (16:57 UTC)

Previsione

Il bollettino è stato emesso 2 ore e 32 minuti fa, alle 14:25 UTC
Previsione valida dal 31 alle 15 UTC al 31 alle 24 UTC
Vento 12 kt da ovest
Visibilità 10 km o più
Poco nuvoloso ad un'altezza di 9000 ft
Evoluzione graduale
dal 31 alle 16 UTC al 31 alle 18 UTC
Vento 3 kt da direzioni variabili

TAF: LSGS 311425Z 3115/3124 26012KT 9999 FEW090 BECMG 3116/3118 VRB03KT

Osservazioni e previsioni meteorologiche di più di 4000 aeroporti (messaggi METAR e TAF).

Le stazioni disponibili sono rappresentate dai dischi gialli e rossi sulla carta.

Puntare il mouse per vedere il nome della stazione.

Clicca sopra per visualizzare le osservazioni e previsioni meteorologiche.

Per cambiare la mappa : fare clic sui pulsanti verdi con una croce nera per ingrandire, il pulsante verde con un trattino per diminuire, o sulla freccia verde per le mappe adiacenti.


METAR-TAF: